createdAt,value
2022-11-16T00:01:03.692Z,65.53
2022-11-16T00:04:06.331Z,66.73
2022-11-16T00:07:08.796Z,69.57
2022-11-16T00:10:12.053Z,71.50
2022-11-16T00:13:14.419Z,72.95
2022-11-16T00:16:18.204Z,67.47
2022-11-16T00:19:20.534Z,74.47
2022-11-16T00:22:23.093Z,78.60
2022-11-16T00:25:25.332Z,66.40
2022-11-16T00:28:28.504Z,77.57
2022-11-16T00:31:31.174Z,75.35
2022-11-16T00:34:33.891Z,77.30
2022-11-16T00:37:36.353Z,83.40
2022-11-16T00:40:38.900Z,83.70
2022-11-16T00:43:41.234Z,76.18
2022-11-16T00:46:44.200Z,85.28
2022-11-16T00:49:46.395Z,83.20
2022-11-16T00:52:48.902Z,65.53
2022-11-16T00:55:51.127Z,76.47
2022-11-16T00:58:54.512Z,82.80
2022-11-16T01:01:56.881Z,71.47
2022-11-16T01:04:59.414Z,88.63
2022-11-16T01:08:01.698Z,78.87
2022-11-16T01:11:25.950Z,78.53
2022-11-16T01:14:28.231Z,86.22
2022-11-16T01:17:30.772Z,73.68
2022-11-16T01:20:32.987Z,83.57
2022-11-16T01:23:35.600Z,87.47
2022-11-16T01:26:37.985Z,74.50
2022-11-16T01:29:41.211Z,72.80
2022-11-16T01:32:44.012Z,76.75
2022-11-16T01:35:46.907Z,80.10
2022-11-16T01:38:50.695Z,77.43
2022-11-16T01:41:53.689Z,78.25
2022-11-16T01:45:43.989Z,78.53
2022-11-16T01:48:52.842Z,72.05
2022-11-16T01:52:03.050Z,68.97
2022-11-16T01:55:07.128Z,71.18
2022-11-16T01:58:17.372Z,72.10
2022-11-16T02:01:20.786Z,75.60
2022-11-16T02:04:24.072Z,73.60
2022-11-16T02:07:57.716Z,75.13
2022-11-16T02:11:21.752Z,65.90
2022-11-16T02:14:42.334Z,63.17
2022-11-16T02:17:45.745Z,67.68
2022-11-16T02:21:06.935Z,65.03
2022-11-16T02:24:23.294Z,65.80
2022-11-16T02:27:44.717Z,64.87
2022-11-16T02:30:50.708Z,65.65
2022-11-16T02:33:56.198Z,69.35
2022-11-16T02:37:01.667Z,58.47
2022-11-16T02:40:07.959Z,61.60
2022-11-16T02:43:15.518Z,53.55
2022-11-16T02:46:29.606Z,59.10
2022-11-16T02:49:36.438Z,50.42
2022-11-16T02:52:39.004Z,66.35
2022-11-16T02:55:41.707Z,52.27
2022-11-16T02:58:44.334Z,54.35
2022-11-16T03:02:17.086Z,55.38
2022-11-16T03:05:32.120Z,44.83
2022-11-16T03:08:39.998Z,50.38
2022-11-16T03:12:00.205Z,50.23
2022-11-16T03:15:06.042Z,48.63
2022-11-16T03:18:09.108Z,54.47
2022-11-16T03:21:18.308Z,60.03
2022-11-16T03:24:20.858Z,56.92
2022-11-16T03:27:47.823Z,52.43
2022-11-16T03:30:56.192Z,51.72
2022-11-16T03:34:03.850Z,49.78
2022-11-16T03:37:06.543Z,49.78
2022-11-16T03:40:12.705Z,44.25
2022-11-16T03:43:15.888Z,49.93
2022-11-16T03:46:18.842Z,47.62
2022-11-16T03:49:22.946Z,48.83
2022-11-16T03:52:26.843Z,51.70
2022-11-16T03:55:29.165Z,44.22
2022-11-16T03:58:32.126Z,49.63
2022-11-16T04:01:34.797Z,47.40
2022-11-16T04:04:56.650Z,46.97
2022-11-16T04:08:17.770Z,46.97
2022-11-16T04:11:40.931Z,48.70
2022-11-16T04:15:02.911Z,50.07
2022-11-16T04:18:24.532Z,53.87
2022-11-16T04:21:50.261Z,46.60
2022-11-16T04:25:00.598Z,48.90
2022-11-16T04:28:13.305Z,45.33
2022-11-16T04:31:34.706Z,48.60
2022-11-16T04:34:56.034Z,51.35
2022-11-16T04:37:59.826Z,46.40
2022-11-16T04:41:02.725Z,49.72
2022-11-16T04:44:05.534Z,54.95
2022-11-16T04:47:09.621Z,55.10
2022-11-16T04:50:12.693Z,49.22
2022-11-16T04:53:15.889Z,57.30
2022-11-16T04:56:19.038Z,52.88
2022-11-16T04:59:22.334Z,53.17
2022-11-16T05:02:25.589Z,55.27
2022-11-16T05:05:28.379Z,52.13
2022-11-16T05:08:31.690Z,55.85
2022-11-16T05:11:34.872Z,62.62
2022-11-16T05:14:38.211Z,69.43
2022-11-16T05:17:40.659Z,62.63
2022-11-16T05:21:02.733Z,60.72
2022-11-16T05:24:24.331Z,64.25
2022-11-16T05:27:28.967Z,64.03
2022-11-16T05:30:31.228Z,72.07
2022-11-16T05:33:34.288Z,73.83
2022-11-16T05:36:37.058Z,67.40
2022-11-16T05:39:40.144Z,72.65
2022-11-16T05:42:42.477Z,77.43
2022-11-16T05:45:45.315Z,88.05
2022-11-16T05:48:49.690Z,81.03
2022-11-16T05:51:52.669Z,80.43
2022-11-16T05:54:55.062Z,82.45
2022-11-16T05:57:57.942Z,76.72
2022-11-16T06:01:00.304Z,87.80
2022-11-16T06:04:03.159Z,83.70
2022-11-16T06:07:05.893Z,81.25
2022-11-16T06:10:10.005Z,89.72
2022-11-16T06:13:13.643Z,92.18
2022-11-16T06:16:16.731Z,91.70
2022-11-16T06:19:18.973Z,84.90
2022-11-16T06:22:21.786Z,97.47
2022-11-16T06:25:24.151Z,81.28
2022-11-16T06:28:27.714Z,83.10
2022-11-16T06:31:30.229Z,87.45
2022-11-16T06:34:33.971Z,98.53
2022-11-16T06:37:37.508Z,94.05
2022-11-16T06:40:40.659Z,90.57
2022-11-16T06:43:43.291Z,92.00
2022-11-16T06:46:46.248Z,90.60
2022-11-16T06:49:48.865Z,93.40
2022-11-16T06:52:52.150Z,96.28
2022-11-16T06:55:55.470Z,87.35
2022-11-16T06:58:58.251Z,83.35
2022-11-16T07:02:00.932Z,90.45
2022-11-16T07:05:04.997Z,95.77
2022-11-16T07:08:08.124Z,83.62
2022-11-16T07:11:11.315Z,80.05
2022-11-16T07:14:13.944Z,89.43
2022-11-16T07:17:16.823Z,85.70
2022-11-16T07:20:19.435Z,83.27
2022-11-16T07:23:22.673Z,96.35
2022-11-16T07:26:25.438Z,84.15
2022-11-16T07:29:28.656Z,95.30
2022-11-16T07:32:35.954Z,102.38
2022-11-16T07:35:39.348Z,87.80
2022-11-16T07:38:41.896Z,90.22
2022-11-16T07:41:45.252Z,83.65
2022-11-16T07:44:48.772Z,86.75
2022-11-16T07:47:53.385Z,83.87
2022-11-16T07:51:06.043Z,85.93
2022-11-16T07:54:14.575Z,88.20
2022-11-16T07:57:17.406Z,78.45
2022-11-16T08:00:20.106Z,90.93
2022-11-16T08:03:24.893Z,82.37
2022-11-16T08:06:30.140Z,87.20
2022-11-16T08:09:34.805Z,83.03
2022-11-16T08:12:37.494Z,91.90
2022-11-16T08:15:41.081Z,82.07
2022-11-16T08:18:45.000Z,77.75
2022-11-16T08:21:48.495Z,92.60
2022-11-16T08:24:51.043Z,95.22
2022-11-16T08:27:54.848Z,114.55
2022-11-16T08:30:59.321Z,98.70
2022-11-16T08:34:01.969Z,94.62
2022-11-16T08:37:04.550Z,86.07
2022-11-16T08:40:08.669Z,98.30
2022-11-16T08:43:11.489Z,86.07
2022-11-16T08:46:14.644Z,91.12
2022-11-16T08:49:18.494Z,82.32
2022-11-16T08:52:21.745Z,87.77
2022-11-16T08:55:25.156Z,88.70
2022-11-16T08:58:27.943Z,83.43
2022-11-16T09:01:31.457Z,86.12
2022-11-16T09:04:36.999Z,91.22
2022-11-16T09:07:40.720Z,98.83
2022-11-16T09:10:43.402Z,84.62
2022-11-16T09:13:47.385Z,94.07
2022-11-16T09:16:49.906Z,91.72
2022-11-16T09:19:52.209Z,86.50
2022-11-16T09:22:54.716Z,86.13
2022-11-16T09:26:01.568Z,84.13
2022-11-16T09:29:04.473Z,81.25
2022-11-16T09:32:06.938Z,80.87
2022-11-16T09:35:09.891Z,76.93
2022-11-16T09:38:16.159Z,82.53
2022-11-16T09:42:08.406Z,89.95
2022-11-16T09:45:45.799Z,82.47
2022-11-16T09:48:50.111Z,78.95
2022-11-16T09:52:00.574Z,80.55
2022-11-16T09:55:26.403Z,83.40
2022-11-16T09:58:35.128Z,77.32
2022-11-16T10:01:50.321Z,78.07
2022-11-16T10:05:02.961Z,88.85
2022-11-16T10:08:18.685Z,77.15
2022-11-16T10:11:33.412Z,82.30
2022-11-16T10:14:52.092Z,79.25
2022-11-16T10:18:29.678Z,84.53
2022-11-16T10:21:50.089Z,82.95
2022-11-16T10:25:16.618Z,86.70
2022-11-16T10:28:21.891Z,87.00
2022-11-16T10:31:37.726Z,75.10
2022-11-16T10:35:17.027Z,82.35
2022-11-16T10:38:28.372Z,77.07
2022-11-16T10:41:40.180Z,76.65
2022-11-16T10:44:51.716Z,74.67
2022-11-16T10:48:07.862Z,74.15
2022-11-16T10:51:10.690Z,72.22
2022-11-16T10:54:14.269Z,74.72
2022-11-16T10:57:17.933Z,72.00
2022-11-16T11:00:46.882Z,71.57
2022-11-16T11:03:50.827Z,69.55
2022-11-16T11:07:23.335Z,71.25
2022-11-16T11:10:33.526Z,71.65
2022-11-16T11:13:35.975Z,72.05
2022-11-16T11:16:41.390Z,71.10
2022-11-16T11:19:43.648Z,71.90
2022-11-16T11:22:56.241Z,67.28
2022-11-16T11:26:00.489Z,64.03
2022-11-16T11:29:25.069Z,65.72
2022-11-16T11:32:34.278Z,65.40
2022-11-16T11:35:36.982Z,64.40
2022-11-16T11:39:15.952Z,69.55
2022-11-16T11:42:23.288Z,63.70
2022-11-16T11:45:32.517Z,62.78
2022-11-16T11:48:57.749Z,58.73
2022-11-16T11:52:17.322Z,64.65
2022-11-16T11:55:19.918Z,61.05
2022-11-16T11:58:26.391Z,63.10
2022-11-16T12:02:08.089Z,60.78
2022-11-16T12:05:28.346Z,64.10
2022-11-16T12:08:30.496Z,59.05
2022-11-16T12:11:45.403Z,61.30
2022-11-16T12:15:13.591Z,60.53
2022-11-16T12:18:34.648Z,61.00
2022-11-16T12:21:58.490Z,64.13
2022-11-16T12:25:27.373Z,57.62
2022-11-16T12:28:51.692Z,63.13
2022-11-16T12:32:03.077Z,59.45
2022-11-16T12:35:33.664Z,59.38
2022-11-16T12:39:01.056Z,61.10
2022-11-16T12:42:40.536Z,62.22
2022-11-16T12:46:05.010Z,58.03
2022-11-16T12:49:31.844Z,56.03
2022-11-16T12:52:50.169Z,53.63
2022-11-16T12:56:27.618Z,60.50
2022-11-16T12:59:33.077Z,54.58
2022-11-16T13:02:41.041Z,58.58
2022-11-16T13:05:56.062Z,54.97
2022-11-16T13:09:11.116Z,55.47
2022-11-16T13:12:17.416Z,55.07
2022-11-16T13:15:22.376Z,51.15
2022-11-16T13:18:26.589Z,56.17
2022-11-16T13:21:47.860Z,50.60
2022-11-16T13:25:20.225Z,52.92
2022-11-16T13:28:33.637Z,46.00
2022-11-16T13:31:48.451Z,54.05
2022-11-16T13:34:52.396Z,48.58
2022-11-16T13:37:55.054Z,50.47
2022-11-16T13:41:46.267Z,48.35
2022-11-16T13:44:51.525Z,48.93
2022-11-16T13:47:56.830Z,48.22
2022-11-16T13:51:05.975Z,50.78
2022-11-16T13:57:36.431Z,47.40
2022-11-16T14:00:40.694Z,52.07
2022-11-16T14:03:45.948Z,47.80
2022-11-16T14:06:48.202Z,49.10
2022-11-16T14:09:50.809Z,47.30
2022-11-16T14:12:57.157Z,49.97
2022-11-16T14:16:15.001Z,51.73
2022-11-16T14:19:49.143Z,45.72
2022-11-16T14:23:01.163Z,44.45
2022-11-16T14:26:17.226Z,46.40
2022-11-16T14:29:39.995Z,42.80
2022-11-16T14:32:52.423Z,43.00
2022-11-16T14:35:55.076Z,45.60
2022-11-16T14:39:19.887Z,40.85
2022-11-16T14:42:38.160Z,43.83
2022-11-16T14:46:09.378Z,42.03
2022-11-16T14:49:16.134Z,44.43
2022-11-16T14:52:25.531Z,45.50
2022-11-16T14:55:28.766Z,45.05
2022-11-16T14:58:30.978Z,48.28
2022-11-16T15:01:37.033Z,44.95
2022-11-16T15:04:39.426Z,43.03
2022-11-16T15:07:43.173Z,44.28
2022-11-16T15:10:52.146Z,45.97
2022-11-16T15:13:55.644Z,41.20
2022-11-16T15:16:59.569Z,42.60
2022-11-16T15:20:14.206Z,43.87
2022-11-16T15:23:17.383Z,45.88
2022-11-16T15:26:23.893Z,36.55
2022-11-16T15:29:26.189Z,46.20
2022-11-16T15:32:28.849Z,40.45
2022-11-16T15:35:32.797Z,43.73
2022-11-16T15:38:37.587Z,42.90
2022-11-16T15:41:40.382Z,42.15
2022-11-16T15:44:44.114Z,43.83
2022-11-16T15:47:47.415Z,41.10
2022-11-16T15:51:20.063Z,42.97
2022-11-16T15:54:26.604Z,46.00
2022-11-16T15:57:29.224Z,42.08
2022-11-16T16:00:35.142Z,43.15
2022-11-16T16:03:38.653Z,42.25
2022-11-16T16:06:57.231Z,38.37
2022-11-16T16:10:24.389Z,40.88
2022-11-16T16:13:48.490Z,41.47
2022-11-16T16:16:57.265Z,38.08
2022-11-16T16:20:05.694Z,39.28
2022-11-16T16:23:12.846Z,41.47
2022-11-16T16:26:16.667Z,35.67
2022-11-16T16:29:19.204Z,33.72
2022-11-16T16:32:36.916Z,38.50
2022-11-16T16:35:39.475Z,38.65
2022-11-16T16:38:41.697Z,38.90
2022-11-16T16:41:44.505Z,41.42
2022-11-16T16:44:48.013Z,37.45
2022-11-16T16:47:50.576Z,39.92
2022-11-16T16:50:52.838Z,44.38
2022-11-16T16:53:55.410Z,36.10
2022-11-16T16:56:58.073Z,39.72
2022-11-16T17:00:00.726Z,36.47
2022-11-16T17:03:03.036Z,37.70
2022-11-16T17:06:05.838Z,35.13
2022-11-16T17:09:08.080Z,35.57
2022-11-16T17:12:11.115Z,40.45
2022-11-16T17:15:19.046Z,38.88
2022-11-16T17:18:22.644Z,39.35
2022-11-16T17:21:24.938Z,38.33
2022-11-16T17:24:27.476Z,36.33
2022-11-16T17:27:30.735Z,36.03
2022-11-16T17:30:33.222Z,35.60
2022-11-16T17:33:40.302Z,34.45
2022-11-16T17:36:43.303Z,36.85
2022-11-16T17:39:45.524Z,35.97
2022-11-16T17:42:49.596Z,37.08
2022-11-16T17:45:51.977Z,35.22
2022-11-16T17:48:54.741Z,34.60
2022-11-16T17:51:57.284Z,33.83
2022-11-16T17:54:59.835Z,35.17
2022-11-16T17:58:02.469Z,34.95
2022-11-16T18:01:05.371Z,36.33
2022-11-16T18:04:08.175Z,36.20
2022-11-16T18:07:10.677Z,35.20
2022-11-16T18:10:17.950Z,40.73
2022-11-16T18:13:21.805Z,32.28
2022-11-16T18:16:27.627Z,33.25
2022-11-16T18:19:29.955Z,31.37
2022-11-16T18:22:32.658Z,30.15
2022-11-16T18:25:36.888Z,29.10
2022-11-16T18:28:41.182Z,31.48
2022-11-16T18:31:43.697Z,28.60
2022-11-16T18:34:46.591Z,26.00
2022-11-16T18:37:48.909Z,25.98
2022-11-16T18:41:04.483Z,27.43
2022-11-16T18:44:07.932Z,32.70
2022-11-16T18:47:10.544Z,26.00
2022-11-16T18:50:19.009Z,23.75
2022-11-16T18:53:24.013Z,26.50
2022-11-16T18:56:27.237Z,21.33
2022-11-16T18:59:29.835Z,24.10
2022-11-16T19:02:32.168Z,20.80
2022-11-16T19:05:34.777Z,24.17
2022-11-16T19:08:38.650Z,22.10
2022-11-16T19:11:41.375Z,24.03
2022-11-16T19:14:43.623Z,26.48
2022-11-16T19:18:14.233Z,26.10
2022-11-16T19:21:11.051Z,22.27
2022-11-16T19:24:13.667Z,19.58
2022-11-16T19:27:16.735Z,22.33
2022-11-16T19:30:19.530Z,22.20
2022-11-16T19:33:21.790Z,18.05
2022-11-16T19:36:25.557Z,18.05
2022-11-16T19:39:27.832Z,21.00
2022-11-16T19:42:30.636Z,17.40
2022-11-16T19:45:32.835Z,18.62
2022-11-16T19:48:38.337Z,22.35
2022-11-16T19:51:40.586Z,20.83
2022-11-16T19:54:43.065Z,24.48
2022-11-16T19:57:45.478Z,25.33
2022-11-16T20:00:48.110Z,25.48
2022-11-16T20:03:51.058Z,25.42
2022-11-16T20:06:53.356Z,28.20
2022-11-16T20:09:56.012Z,28.08
2022-11-16T20:13:01.089Z,31.57
2022-11-16T20:16:03.681Z,30.20
2022-11-16T20:19:07.058Z,31.85
2022-11-16T20:22:09.657Z,28.05
2022-11-16T20:25:11.914Z,31.73
2022-11-16T20:28:14.418Z,29.30
2022-11-16T20:31:21.937Z,30.95
2022-11-16T20:34:24.977Z,29.90
2022-11-16T20:37:27.219Z,31.08
2022-11-16T20:40:29.877Z,31.37
2022-11-16T20:43:32.384Z,27.97
2022-11-16T20:46:36.724Z,29.77
2022-11-16T20:49:39.011Z,30.08
2022-11-16T20:52:44.306Z,27.65
2022-11-16T20:55:49.978Z,26.48
2022-11-16T20:58:52.556Z,25.23
2022-11-16T21:01:55.297Z,23.90
2022-11-16T21:05:00.501Z,23.48
2022-11-16T21:08:02.923Z,22.80
2022-11-16T21:11:13.656Z,23.30
2022-11-16T21:14:15.887Z,20.73
2022-11-16T21:17:18.680Z,21.48
2022-11-16T21:20:27.347Z,19.87
2022-11-16T21:23:32.479Z,23.48
2022-11-16T21:26:35.535Z,21.65
2022-11-16T21:29:38.065Z,17.53
2022-11-16T21:32:40.363Z,17.70
2022-11-16T21:35:42.808Z,20.60
2022-11-16T21:38:46.021Z,21.05
2022-11-16T21:41:48.646Z,21.05
2022-11-16T21:44:51.011Z,23.67
2022-11-16T21:47:53.620Z,18.35
2022-11-16T21:51:16.513Z,18.77
2022-11-16T21:54:19.235Z,20.90
2022-11-16T21:57:21.836Z,21.95
2022-11-16T22:00:25.398Z,24.60
2022-11-16T22:03:29.872Z,22.67
2022-11-16T22:06:50.592Z,28.20
2022-11-16T22:09:53.217Z,24.60
2022-11-16T22:12:55.424Z,29.20
2022-11-16T22:15:57.953Z,29.17
2022-11-16T22:19:00.322Z,31.25
2022-11-16T22:22:03.054Z,34.25
2022-11-16T22:25:05.974Z,28.83
2022-11-16T22:28:23.964Z,28.05
2022-11-16T22:31:26.265Z,31.73
2022-11-16T22:34:28.769Z,25.10
2022-11-16T22:37:31.417Z,25.85
2022-11-16T22:40:33.984Z,28.67
2022-11-16T22:43:37.388Z,27.45
2022-11-16T22:46:41.043Z,26.30
2022-11-16T22:49:43.291Z,26.00
2022-11-16T22:52:45.944Z,29.23
2022-11-16T22:55:48.145Z,26.33
2022-11-16T22:58:50.645Z,29.98
2022-11-16T23:01:52.942Z,29.00
2022-11-16T23:04:55.419Z,29.33
2022-11-16T23:07:57.838Z,27.35
2022-11-16T23:11:19.956Z,30.05
2022-11-16T23:14:41.126Z,30.05
2022-11-16T23:17:45.374Z,27.07
2022-11-16T23:21:06.062Z,30.15
2022-11-16T23:24:31.550Z,29.45
2022-11-16T23:27:51.477Z,28.95
2022-11-16T23:30:54.026Z,29.65
2022-11-16T23:33:56.273Z,30.40
2022-11-16T23:37:03.345Z,28.35
2022-11-16T23:40:06.082Z,26.35
2022-11-16T23:43:28.876Z,20.65
2022-11-16T23:46:32.432Z,29.55
2022-11-16T23:49:34.965Z,28.27
2022-11-16T23:52:37.203Z,26.05
2022-11-16T23:55:40.181Z,31.42
2022-11-16T23:58:42.435Z,30.45
